Pahrump, Nevada Weather observations

Data are for observation ending at time listed.
 Day   Time    Ave.   Ave.  Ave.  Vector   Max.   Stn.    Total    Solar   Ave.  
  of    of     Air    Rel.  Wind   Wind    Wind   Baro.  Precip.   Rad.    Soil  
Year   Day     Temp.  Hum.  Speed  Dir.    Gust   Pres.                    Temp. 
2016   (PST)    F      %     mph   deg.    mph     mb.     in.     W/m2     F   
------------------------------------------------------------------------------
 145   21:30   66.2    29    4.5   147      7.2   919.4    0.00       0    75.3
 145   21:40   66.0    29    4.9   143      8.1   919.4    0.00       0    75.1
 145   21:50   65.4    30    5.9   138      9.3   919.3    0.00       0    74.9
 145   22:00   65.5    30    6.2   152      9.6   919.2    0.00       0    74.8
 145   22:10   65.5    30    5.2   142      8.2   919.2    0.00       0    74.6
 145   22:20   64.9    31    5.6   137      8.4   919.2    0.00       0    74.4
 145   22:30   64.2    31    6.6   135      9.1   919.2    0.00       0    74.2
 145   22:40   64.0    32    6.7   143      9.6   919.2    0.00       0    74.1
 145   22:50   64.0    32    5.1   148      8.3   919.3    0.00       0    73.9
 145   23:00   63.6    33    4.2   137      6.1   919.4    0.00       0    73.8
 145   23:10   63.2    34    4.2   116      6.8   919.3    0.00       0    73.6
 145   23:20   62.9    34    4.0   123      6.5   919.3    0.00       0    73.5
 145   23:30   62.7    34    4.8   134      7.6   919.3    0.00       0    73.3
 145   23:40   62.7    35    4.8   135      6.9   919.3    0.00       0    73.2
 145   23:50   62.3    35    4.4   125      7.3   919.3    0.00       0    73.0
 146    0:00   62.1    36    5.4   134      7.7   919.3    0.00       0    72.9
 146    0:10   62.0    36    4.7   137      6.1   919.3    0.00       0    72.7
 146    0:20   61.8    37    3.2   129      4.7   919.3    0.00       0    72.6
 146    0:30   61.8    36    6.0   132     10.2   919.3    0.00       0    72.4
 146    0:40   61.8    36    6.9   138      9.6   919.2    0.00       0    72.3
 146    0:50   61.8    37    6.2   144      9.1   919.2    0.00       0    72.2
 146    1:00   61.8    38    5.7   148      9.8   919.1    0.00       0    72.0
 146    1:10   61.7    38    5.9   137      9.6   919.0    0.00       0    71.9
 146    1:20   61.4    39    5.0   139      7.1   919.0    0.00       0    71.8
 146    1:30   61.6    39    4.2   152      6.4   918.9    0.00       0    71.6
 146    1:40   61.8    39    3.2   143      5.0   918.9    0.00       0    71.5
 146    1:50   60.6    40    3.3   139      4.7   918.8    0.00       0    71.4
 146    2:00   59.5    42    3.9   148      5.3   918.8    0.00       0    71.3
 146    2:10   59.6    40    5.3   178      8.0   918.7    0.00       0    71.1
 146    2:20   59.3    40    5.7   182      8.3   918.7    0.00       0    71.0
 146    2:30   59.3    40    3.8   164      7.3   918.7    0.00       0    70.9
 146    2:40   60.2    38    5.1   133      7.5   918.6    0.00       0    70.8
 146    2:50   59.5    40    3.0   143      5.2   918.6    0.00       0    70.6
 146    3:00   56.5    46    2.8   315      4.7   918.6    0.00       0    70.5
 146    3:10   55.5    47    3.1   343      5.7   918.4    0.00       0    70.4
 146    3:20   55.0    49    2.6   319      5.6   918.3    0.00       0    70.2
 146    3:30   53.2    51    2.9   352      6.2   918.3    0.00       0    70.1
 146    3:40   53.2    51    2.3     5      4.5   918.2    0.00       0    69.9
 146    3:50   53.5    50    1.5     1      3.6   918.1    0.00       0    69.8
 146    4:00   53.4    50    1.7   355      4.0   918.1    0.00       0    69.6
 146    4:10   53.4    50    1.7    12      2.8   918.1    0.00       0    69.4
 146    4:20   53.2    50    2.4   348      4.7   918.3    0.00       1    69.3
 146    4:30   53.2    50    1.6   344      3.3   918.3    0.00       3    69.1
 146    4:40   52.9    51    2.4   340      3.8   918.3    0.00       4    69.0
 146    4:50   52.9    51    1.0   352      2.6   918.4    0.00      10    68.8
 146    5:00   53.0    51    2.1   357      3.4   918.4    0.00      15    68.7
 146    5:10   53.5    50    2.0     3      4.7   918.5    0.00      32    68.6
 146    5:20   54.8    47    3.5   348      5.4   918.7    0.00      60    68.5
 146    5:30   55.7    45    3.6   352      6.1   918.9    0.00      95    68.3
 146    5:40   58.5    42    2.4     8      5.3   919.1    0.00     112    68.3
 146    5:50   60.3    39    1.1    28      2.7   919.3    0.00      60    68.3
 146    6:00   61.3    38    1.4   342      3.9   919.6    0.00     105    68.3
 146    6:10   61.8    38    1.0   317      2.3   920.0    0.00     153    68.5
 146    6:20   62.8    37    1.3   299      3.4   920.2    0.00      70    68.6
 146    6:30   63.6    36    1.2   297      2.6   920.5    0.00       2    68.9
 146    6:40   63.6    36    1.6   310      2.6   920.7    0.00       0    69.1
 146    6:50   63.2    37    1.8   293      4.7   920.9    0.00       0    69.5
 146    7:00   63.8    37    2.0   305      3.6   921.1    0.00       0    69.8
 146    7:10   63.5    38    3.1   302      6.1   921.3    0.00       0    70.2
 146    7:20   63.6    38    2.8   210      7.2   921.4    0.00       0    70.7
 146    7:30   65.1    37    2.0   258      6.2   921.5    0.00       0    71.1
 146    7:40   66.6    35    2.0   277      5.1   921.7    0.00       0    71.6
 146    7:50   66.0    35    1.8   206      4.4   921.9    0.00     421    72.1
 146    8:00   65.1    37    1.6   302      4.0   922.0    0.00     391    72.5
 146    8:10   66.1    36    3.3   295      6.4   922.0    0.00     712    73.0
 146    8:20   68.1    33    2.0   298      5.4   922.1    0.00     174    73.5
 146    8:30   67.6    34    3.5   308      7.1   922.3    0.00       0    73.9
 146    8:40   67.1    34    0.8   236      5.4   922.3    0.00       0    74.3
 146    8:50   68.7    33    2.2   241      5.9   922.3    0.00       0    74.9
 146    9:00   68.1    32    2.2   176      6.6   922.4    0.00       0    75.4
 146    9:10   68.6    31    1.6   190      4.8   922.4    0.00       0    75.9
 146    9:20   68.6    31    2.4   318      5.6   922.4    0.00       0    76.4
 146    9:30   69.4    30    2.0   174      5.7   922.5    0.00       0    77.0
 146    9:40   70.0    29    1.6   167      4.4   922.6    0.00       0    77.6
 146    9:50   72.1    27    2.0   316      5.8   922.6    0.00       0    78.2
 146   10:00   71.6    26    3.6   336      6.6   922.6    0.00       0    78.8
 146   10:10   72.9    25    0.9   322      3.9   922.7    0.00       0    79.3
 146   10:20   74.2    25    1.1   299      6.1   922.7    0.00       0    79.8
 146   10:30   73.8    25    0.1   216      0.1   922.9    0.00       0    80.3
 146   10:40   73.4    24    0.1   109      0.1   922.9    0.00       0    80.8
 146   10:50   73.7    24    0.1   185      0.1   922.9    0.00       0    81.2
 146   11:00   71.9    26    0.1   281      0.1   922.8    0.00       0    81.5
 146   11:10   73.3    23    0.1   230      0.1   922.6    0.00       0    81.8
 146   11:20   72.9    23    0.1   176      0.1   922.3    0.00       0    82.0
 146   11:30   72.8    24    0.1   257      0.1   922.1    0.00       0    82.0
 146   11:40   74.2    22    0.1   305      0.1   921.9    0.00       0    82.1
 146   11:50   75.2    22    0.1   219      0.1   921.8    0.00       0    82.2
 146   12:00   76.2    21    0.1   308      0.1   921.8    0.00       0    82.5
 146   12:10   74.9    22    0.1   317      0.1   921.9    0.00       0    82.8
 146   12:20   75.8    21    0.1   306      0.1   921.8    0.00       0    83.2
 146   12:30   76.0    21    0.1   246      0.1   921.8    0.00       0    83.7
 146   12:40   77.5    20    0.1   209      0.1   921.7    0.00       0    84.1
 146   12:50   76.9    20    0.1   163      0.1   921.8    0.00       0    84.6
 146   13:00   76.7    20    0.1   205      0.1   921.8    0.00       0    85.0
 146   13:10   77.9    20    0.1   246      0.1   921.7    0.00       0    85.4
 146   13:20   77.4    19    0.1   281      0.1   921.6    0.00       0    85.7
 146   13:30   78.5    18    0.1   218      0.1   921.4    0.00       0    86.0
 146   13:40   78.0    18    0.1   350      0.1   921.2    0.00       0    86.3
 146   13:50   79.2    18    0.1   285      0.1   921.1    0.00       0    86.5
 146   14:00   79.6    17    0.1   245      0.1   921.1    0.00       0    86.7
 146   14:10   78.5    17    0.1   201      0.1   921.1    0.00       0    86.8
 146   14:20   77.0    19    3.0   358     21.5   920.8    0.00       0    86.9
 146   14:30   76.0    21   12.2    62     17.6   920.8    0.00       0    87.0
 146   14:40   75.8    20   11.5    68     20.2   920.4    0.00       0    86.9
 146   14:50   75.0    21   12.1    63     18.5   920.1    0.00       0    86.6
 146   15:00   74.5    20   12.2    56     19.4   919.8    0.00       0    86.3
 146   15:10   74.8    18   10.4    57     15.7   919.5    0.00       0    85.9
 146   15:20   74.9    18   10.3    55     15.1   919.4    0.00       0    85.4
 146   15:30   74.8    16    9.1    56     14.5   919.4    0.00       0    85.0
 146   15:40   74.8    16    9.6    68     17.5   919.4    0.00       0    84.6
 146   15:50   74.2    18    9.1    79     17.8   919.5    0.00       0    84.2
 146   16:00   74.9    18    6.5    86     11.2   919.7    0.00       0    83.8
 146   16:10   75.4    18    7.4   114     16.2   919.9    0.00       0    83.5
 146   16:20   72.5    26   17.8   158     26.8   920.1    0.00       0    83.2
 146   16:30   69.8    28   19.4   147     29.4   920.1    0.00       0    82.9
 146   16:40   69.9    28   16.9   147     25.1   920.0    0.00      50    82.7
 146   16:50   69.6    27   15.2   148     24.6   920.1    0.00     124    82.3
 146   17:00   69.4    29   14.4   161     23.3   920.2    0.00     141    82.0
 146   17:10   68.8    30   14.6   161     23.8   920.3    0.00      43    81.7
 146   17:20   67.8    32   15.1   175     24.3   920.4    0.00       0    81.4
 146   17:30   67.0    33   12.8   171     20.4   920.4    0.00       0    81.1
 146   17:40   67.1    32   12.9   164     20.2   920.5    0.00       0    80.7
 146   17:50   66.7    33   11.8   171     17.8   920.5    0.00       0    80.4
 146   18:00   66.8    32   10.4   161     15.2   920.4    0.00       0    80.1
 146   18:10   67.2    32   10.9   136     17.3   920.2    0.00       0    79.8
 146   18:20   67.3    32   10.1   148     14.2   920.1    0.00       0    79.5
 146   18:30   67.2    32    8.6   168     12.2   919.8    0.00       0    79.2
 146   18:40   67.4    31    8.3   134     12.9   919.9    0.00       0    79.0
 146   18:50   67.6    30    7.5   113     11.2   920.0    0.00       0    78.8
 146   19:00   67.8    30    4.7    99      7.9   920.1    0.00       0    78.6
 146   19:10   67.7    30    2.3    90      4.0   920.1    0.00       0    78.3
 146   19:20   67.6    29    1.9    75      5.0   919.9    0.00       0    78.2
 146   19:30   66.9    31    2.2   277      6.2   919.9    0.00       0    78.0
 146   19:40   65.5    33    2.6   273      4.7   919.9    0.00       0    77.7
 146   19:50   64.4    34    2.0   264      4.5   919.9    0.00       0    77.5
 146   20:00   64.8    34    1.1   278      3.0   919.8    0.00       0    77.3
 146   20:10   64.7    34    1.4   269      2.8   919.7    0.00       0    77.1
 146   20:20   64.2    34    1.8   306      3.1   919.7    0.00       0    76.9
 146   20:30   64.0    35    1.0   281      2.9   919.8    0.00       0    76.6
 146   20:40   63.6    35    0.8   204      2.9   920.0    0.00       0    76.4
 146   20:50   63.4    37    1.2   263      3.1   920.0    0.00       0    76.2
 146   21:00   63.1    37    1.5   255      3.2   919.8    0.00       0    76.0
 146   21:10   62.7    38    1.5   259      2.5   919.8    0.00       0    75.9
 146   21:20   62.3    38    0.8   267      3.1   919.8    0.00       0    75.7

Return to Pahrump, Nevada graphs page.


Western Regional Climate Center,wrcc@dri.edu